<?xml version="1.0" encoding="UTF-8" standalone="no" ?>
<gpx xmlns="http://www.topografix.com/GPX/1/1" xmlns:xsi="http://www.w3.org/2001/XMLSchema-instance" xsi:schemaLocation="http://www.topografix.com/GPX/1/1 http://www.topografix.com/GPX/1/1/gpx.xsd" version="1.1" creator="VisuGPX - https://www.visugpx.com">
  <metadata>
    <name>Pont du Casse 8.8 km</name>
  </metadata>
  <trk>
    <name><![CDATA[Pont du Casse 8.8 km]]></name>
    <extensions>
      <line xmlns="http://www.topografix.com/GPX/gpx_style/0/2">
        <color>0000FF</color>
        <width>4</width>
      </line>
    </extensions>
    <trkseg>
      <trkpt lat="44.23216" lon="0.68211">
        <ele>70</ele>
        <time>2025-02-15T12:43:44.000Z</time>
      </trkpt>
      <trkpt lat="44.23201" lon="0.68229">
        <ele>71</ele>
        <time>2025-02-15T12:44:17.000Z</time>
      </trkpt>
      <trkpt lat="44.23228" lon="0.68323">
        <ele>70</ele>
        <time>2025-02-15T12:45:40.000Z</time>
      </trkpt>
      <trkpt lat="44.23239" lon="0.68366">
        <ele>71</ele>
        <time>2025-02-15T12:46:28.000Z</time>
      </trkpt>
      <trkpt lat="44.23253" lon="0.68396">
        <ele>72</ele>
        <time>2025-02-15T12:47:08.000Z</time>
      </trkpt>
      <trkpt lat="44.23271" lon="0.68437">
        <ele>74</ele>
        <time>2025-02-15T12:48:08.000Z</time>
      </trkpt>
      <trkpt lat="44.23281" lon="0.68445">
        <ele>73</ele>
        <time>2025-02-15T12:48:21.000Z</time>
      </trkpt>
      <trkpt lat="44.23296" lon="0.68512">
        <ele>74</ele>
        <time>2025-02-15T12:49:29.000Z</time>
      </trkpt>
      <trkpt lat="44.23314" lon="0.68555">
        <ele>74</ele>
        <time>2025-02-15T12:50:10.000Z</time>
      </trkpt>
      <trkpt lat="44.23316" lon="0.68577">
        <ele>75</ele>
        <time>2025-02-15T12:50:39.000Z</time>
      </trkpt>
      <trkpt lat="44.23315" lon="0.68605">
        <ele>75</ele>
        <time>2025-02-15T12:51:02.000Z</time>
      </trkpt>
      <trkpt lat="44.23313" lon="0.68633">
        <ele>75</ele>
        <time>2025-02-15T12:51:25.000Z</time>
      </trkpt>
      <trkpt lat="44.23314" lon="0.68686">
        <ele>75</ele>
        <time>2025-02-15T12:52:09.000Z</time>
      </trkpt>
      <trkpt lat="44.2332" lon="0.68733">
        <ele>73</ele>
        <time>2025-02-15T12:52:49.000Z</time>
      </trkpt>
      <trkpt lat="44.23328" lon="0.68798">
        <ele>73</ele>
        <time>2025-02-15T12:53:43.000Z</time>
      </trkpt>
      <trkpt lat="44.23354" lon="0.6893">
        <ele>74</ele>
        <time>2025-02-15T12:55:46.000Z</time>
      </trkpt>
      <trkpt lat="44.23384" lon="0.69088">
        <ele>73</ele>
        <time>2025-02-15T12:58:00.000Z</time>
      </trkpt>
      <trkpt lat="44.23386" lon="0.69107">
        <ele>73</ele>
        <time>2025-02-15T12:58:16.000Z</time>
      </trkpt>
      <trkpt lat="44.2338" lon="0.69155">
        <ele>73</ele>
        <time>2025-02-15T12:58:56.000Z</time>
      </trkpt>
      <trkpt lat="44.23373" lon="0.69191">
        <ele>73</ele>
        <time>2025-02-15T12:59:26.000Z</time>
      </trkpt>
      <trkpt lat="44.23371" lon="0.6922">
        <ele>74</ele>
        <time>2025-02-15T13:00:00.000Z</time>
      </trkpt>
      <trkpt lat="44.23373" lon="0.69259">
        <ele>74</ele>
        <time>2025-02-15T13:00:33.000Z</time>
      </trkpt>
      <trkpt lat="44.23377" lon="0.69299">
        <ele>75</ele>
        <time>2025-02-15T13:01:16.000Z</time>
      </trkpt>
      <trkpt lat="44.23384" lon="0.69361">
        <ele>76</ele>
        <time>2025-02-15T13:02:17.000Z</time>
      </trkpt>
      <trkpt lat="44.2339" lon="0.69384">
        <ele>75</ele>
        <time>2025-02-15T13:02:37.000Z</time>
      </trkpt>
      <trkpt lat="44.23395" lon="0.69406">
        <ele>75</ele>
        <time>2025-02-15T13:02:56.000Z</time>
      </trkpt>
      <trkpt lat="44.23406" lon="0.69429">
        <ele>74</ele>
        <time>2025-02-15T13:03:19.000Z</time>
      </trkpt>
      <trkpt lat="44.23415" lon="0.69445">
        <ele>73</ele>
        <time>2025-02-15T13:03:36.000Z</time>
      </trkpt>
      <trkpt lat="44.2343" lon="0.69473">
        <ele>73</ele>
        <time>2025-02-15T13:04:04.000Z</time>
      </trkpt>
      <trkpt lat="44.2345" lon="0.69498">
        <ele>74</ele>
        <time>2025-02-15T13:04:45.000Z</time>
      </trkpt>
      <trkpt lat="44.2346" lon="0.69525">
        <ele>74</ele>
        <time>2025-02-15T13:05:10.000Z</time>
      </trkpt>
      <trkpt lat="44.23462" lon="0.69552">
        <ele>74</ele>
        <time>2025-02-15T13:05:32.000Z</time>
      </trkpt>
      <trkpt lat="44.23461" lon="0.69585">
        <ele>74</ele>
        <time>2025-02-15T13:05:59.000Z</time>
      </trkpt>
      <trkpt lat="44.23464" lon="0.6964">
        <ele>74</ele>
        <time>2025-02-15T13:06:44.000Z</time>
      </trkpt>
      <trkpt lat="44.2348" lon="0.69646">
        <ele>74</ele>
        <time>2025-02-15T13:07:03.000Z</time>
      </trkpt>
      <trkpt lat="44.23487" lon="0.69646">
        <ele>74</ele>
        <time>2025-02-15T13:07:11.000Z</time>
      </trkpt>
      <trkpt lat="44.23497" lon="0.69636">
        <ele>73</ele>
        <time>2025-02-15T13:07:25.000Z</time>
      </trkpt>
      <trkpt lat="44.23566" lon="0.6958">
        <ele>72</ele>
        <time>2025-02-15T13:08:57.000Z</time>
      </trkpt>
      <trkpt lat="44.23633" lon="0.69512">
        <ele>75</ele>
        <time>2025-02-15T13:11:02.000Z</time>
      </trkpt>
      <trkpt lat="44.23697" lon="0.69442">
        <ele>85</ele>
        <time>2025-02-15T13:14:18.000Z</time>
      </trkpt>
      <trkpt lat="44.23717" lon="0.6946">
        <ele>87</ele>
        <time>2025-02-15T13:15:05.000Z</time>
      </trkpt>
      <trkpt lat="44.23734" lon="0.69497">
        <ele>87</ele>
        <time>2025-02-15T13:15:42.000Z</time>
      </trkpt>
      <trkpt lat="44.23802" lon="0.69581">
        <ele>86</ele>
        <time>2025-02-15T13:17:26.000Z</time>
      </trkpt>
      <trkpt lat="44.23808" lon="0.69656">
        <ele>83</ele>
        <time>2025-02-15T13:18:28.000Z</time>
      </trkpt>
      <trkpt lat="44.23856" lon="0.69748">
        <ele>82</ele>
        <time>2025-02-15T13:20:01.000Z</time>
      </trkpt>
      <trkpt lat="44.23862" lon="0.69817">
        <ele>81</ele>
        <time>2025-02-15T13:20:58.000Z</time>
      </trkpt>
      <trkpt lat="44.23912" lon="0.69891">
        <ele>83</ele>
        <time>2025-02-15T13:22:42.000Z</time>
      </trkpt>
      <trkpt lat="44.23941" lon="0.69971">
        <ele>84</ele>
        <time>2025-02-15T13:24:06.000Z</time>
      </trkpt>
      <trkpt lat="44.24036" lon="0.69986">
        <ele>95</ele>
        <time>2025-02-15T13:27:48.000Z</time>
      </trkpt>
      <trkpt lat="44.24034" lon="0.69851">
        <ele>100</ele>
        <time>2025-02-15T13:30:30.000Z</time>
      </trkpt>
      <trkpt lat="44.241" lon="0.69757">
        <ele>102</ele>
        <time>2025-02-15T13:32:39.000Z</time>
      </trkpt>
      <trkpt lat="44.24123" lon="0.69697">
        <ele>103</ele>
        <time>2025-02-15T13:33:45.000Z</time>
      </trkpt>
      <trkpt lat="44.2417" lon="0.69626">
        <ele>107</ele>
        <time>2025-02-15T13:35:46.000Z</time>
      </trkpt>
      <trkpt lat="44.24105" lon="0.69522">
        <ele>113</ele>
        <time>2025-02-15T13:38:42.000Z</time>
      </trkpt>
      <trkpt lat="44.24179" lon="0.6948">
        <ele>121</ele>
        <time>2025-02-15T13:41:35.000Z</time>
      </trkpt>
      <trkpt lat="44.24177" lon="0.69421">
        <ele>132</ele>
        <time>2025-02-15T13:44:17.000Z</time>
      </trkpt>
      <trkpt lat="44.24186" lon="0.69383">
        <ele>139</ele>
        <time>2025-02-15T13:46:02.000Z</time>
      </trkpt>
      <trkpt lat="44.24231" lon="0.69332">
        <ele>146</ele>
        <time>2025-02-15T13:48:20.000Z</time>
      </trkpt>
      <trkpt lat="44.24319" lon="0.69251">
        <ele>156</ele>
        <time>2025-02-15T13:52:04.000Z</time>
      </trkpt>
      <trkpt lat="44.24412" lon="0.69085">
        <ele>159</ele>
        <time>2025-02-15T13:55:28.000Z</time>
      </trkpt>
      <trkpt lat="44.24442" lon="0.69108">
        <ele>158</ele>
        <time>2025-02-15T13:56:06.000Z</time>
      </trkpt>
      <trkpt lat="44.24456" lon="0.69075">
        <ele>156</ele>
        <time>2025-02-15T13:56:37.000Z</time>
      </trkpt>
      <trkpt lat="44.24455" lon="0.69062">
        <ele>154</ele>
        <time>2025-02-15T13:56:48.000Z</time>
      </trkpt>
      <trkpt lat="44.24446" lon="0.69044">
        <ele>153</ele>
        <time>2025-02-15T13:57:06.000Z</time>
      </trkpt>
      <trkpt lat="44.24453" lon="0.69034">
        <ele>152</ele>
        <time>2025-02-15T13:57:17.000Z</time>
      </trkpt>
      <trkpt lat="44.24465" lon="0.69033">
        <ele>150</ele>
        <time>2025-02-15T13:57:31.000Z</time>
      </trkpt>
      <trkpt lat="44.24476" lon="0.69042">
        <ele>150</ele>
        <time>2025-02-15T13:57:46.000Z</time>
      </trkpt>
      <trkpt lat="44.24492" lon="0.69051">
        <ele>149</ele>
        <time>2025-02-15T13:58:06.000Z</time>
      </trkpt>
      <trkpt lat="44.24502" lon="0.69054">
        <ele>149</ele>
        <time>2025-02-15T13:58:17.000Z</time>
      </trkpt>
      <trkpt lat="44.24513" lon="0.69051">
        <ele>149</ele>
        <time>2025-02-15T13:58:30.000Z</time>
      </trkpt>
      <trkpt lat="44.24523" lon="0.69041">
        <ele>147</ele>
        <time>2025-02-15T13:58:44.000Z</time>
      </trkpt>
      <trkpt lat="44.24532" lon="0.69017">
        <ele>143</ele>
        <time>2025-02-15T13:59:07.000Z</time>
      </trkpt>
      <trkpt lat="44.24537" lon="0.69003">
        <ele>141</ele>
        <time>2025-02-15T13:59:19.000Z</time>
      </trkpt>
      <trkpt lat="44.2455" lon="0.68987">
        <ele>139</ele>
        <time>2025-02-15T13:59:39.000Z</time>
      </trkpt>
      <trkpt lat="44.24573" lon="0.6896">
        <ele>133</ele>
        <time>2025-02-15T14:00:14.000Z</time>
      </trkpt>
      <trkpt lat="44.2461" lon="0.68929">
        <ele>128</ele>
        <time>2025-02-15T14:01:03.000Z</time>
      </trkpt>
      <trkpt lat="44.24624" lon="0.68922">
        <ele>127</ele>
        <time>2025-02-15T14:01:20.000Z</time>
      </trkpt>
      <trkpt lat="44.24622" lon="0.68902">
        <ele>123</ele>
        <time>2025-02-15T14:01:36.000Z</time>
      </trkpt>
      <trkpt lat="44.24598" lon="0.68909">
        <ele>123</ele>
        <time>2025-02-15T14:02:03.000Z</time>
      </trkpt>
      <trkpt lat="44.24568" lon="0.6892">
        <ele>124</ele>
        <time>2025-02-15T14:02:49.000Z</time>
      </trkpt>
      <trkpt lat="44.24549" lon="0.68917">
        <ele>124</ele>
        <time>2025-02-15T14:03:11.000Z</time>
      </trkpt>
      <trkpt lat="44.24528" lon="0.68908">
        <ele>122</ele>
        <time>2025-02-15T14:03:36.000Z</time>
      </trkpt>
      <trkpt lat="44.24516" lon="0.68888">
        <ele>121</ele>
        <time>2025-02-15T14:03:58.000Z</time>
      </trkpt>
      <trkpt lat="44.24513" lon="0.68877">
        <ele>120</ele>
        <time>2025-02-15T14:04:07.000Z</time>
      </trkpt>
      <trkpt lat="44.24514" lon="0.6886">
        <ele>118</ele>
        <time>2025-02-15T14:04:21.000Z</time>
      </trkpt>
      <trkpt lat="44.24521" lon="0.68836">
        <ele>116</ele>
        <time>2025-02-15T14:04:42.000Z</time>
      </trkpt>
      <trkpt lat="44.24525" lon="0.68814">
        <ele>115</ele>
        <time>2025-02-15T14:05:01.000Z</time>
      </trkpt>
      <trkpt lat="44.24541" lon="0.68777">
        <ele>111</ele>
        <time>2025-02-15T14:05:36.000Z</time>
      </trkpt>
      <trkpt lat="44.24565" lon="0.68741">
        <ele>102</ele>
        <time>2025-02-15T14:06:16.000Z</time>
      </trkpt>
      <trkpt lat="44.24595" lon="0.68709">
        <ele>95</ele>
        <time>2025-02-15T14:06:59.000Z</time>
      </trkpt>
      <trkpt lat="44.24619" lon="0.68673">
        <ele>92</ele>
        <time>2025-02-15T14:07:39.000Z</time>
      </trkpt>
      <trkpt lat="44.24635" lon="0.68635">
        <ele>87</ele>
        <time>2025-02-15T14:08:15.000Z</time>
      </trkpt>
      <trkpt lat="44.24648" lon="0.68587">
        <ele>82</ele>
        <time>2025-02-15T14:08:58.000Z</time>
      </trkpt>
      <trkpt lat="44.24655" lon="0.68557">
        <ele>79</ele>
        <time>2025-02-15T14:09:23.000Z</time>
      </trkpt>
      <trkpt lat="44.24656" lon="0.68516">
        <ele>76</ele>
        <time>2025-02-15T14:09:57.000Z</time>
      </trkpt>
      <trkpt lat="44.24655" lon="0.68487">
        <ele>75</ele>
        <time>2025-02-15T14:10:21.000Z</time>
      </trkpt>
      <trkpt lat="44.24647" lon="0.68447">
        <ele>74</ele>
        <time>2025-02-15T14:10:55.000Z</time>
      </trkpt>
      <trkpt lat="44.24649" lon="0.68418">
        <ele>73</ele>
        <time>2025-02-15T14:11:19.000Z</time>
      </trkpt>
      <trkpt lat="44.24659" lon="0.68407">
        <ele>72</ele>
        <time>2025-02-15T14:11:34.000Z</time>
      </trkpt>
      <trkpt lat="44.24678" lon="0.68402">
        <ele>72</ele>
        <time>2025-02-15T14:11:55.000Z</time>
      </trkpt>
      <trkpt lat="44.24692" lon="0.68397">
        <ele>72</ele>
        <time>2025-02-15T14:12:12.000Z</time>
      </trkpt>
      <trkpt lat="44.24703" lon="0.68384">
        <ele>72</ele>
        <time>2025-02-15T14:12:29.000Z</time>
      </trkpt>
      <trkpt lat="44.24717" lon="0.68355">
        <ele>72</ele>
        <time>2025-02-15T14:12:58.000Z</time>
      </trkpt>
      <trkpt lat="44.24739" lon="0.68325">
        <ele>72</ele>
        <time>2025-02-15T14:13:33.000Z</time>
      </trkpt>
      <trkpt lat="44.24774" lon="0.68272">
        <ele>75</ele>
        <time>2025-02-15T14:15:03.000Z</time>
      </trkpt>
      <trkpt lat="44.24829" lon="0.68221">
        <ele>79</ele>
        <time>2025-02-15T14:17:00.000Z</time>
      </trkpt>
      <trkpt lat="44.24843" lon="0.6821">
        <ele>81</ele>
        <time>2025-02-15T14:17:39.000Z</time>
      </trkpt>
      <trkpt lat="44.24852" lon="0.68195">
        <ele>82</ele>
        <time>2025-02-15T14:18:05.000Z</time>
      </trkpt>
      <trkpt lat="44.24852" lon="0.68153">
        <ele>83</ele>
        <time>2025-02-15T14:18:50.000Z</time>
      </trkpt>
      <trkpt lat="44.24845" lon="0.68142">
        <ele>82</ele>
        <time>2025-02-15T14:19:02.000Z</time>
      </trkpt>
      <trkpt lat="44.24859" lon="0.68091">
        <ele>83</ele>
        <time>2025-02-15T14:19:57.000Z</time>
      </trkpt>
      <trkpt lat="44.24896" lon="0.68054">
        <ele>86</ele>
        <time>2025-02-15T14:21:20.000Z</time>
      </trkpt>
      <trkpt lat="44.24929" lon="0.68017">
        <ele>88</ele>
        <time>2025-02-15T14:22:29.000Z</time>
      </trkpt>
      <trkpt lat="44.24957" lon="0.67989">
        <ele>89</ele>
        <time>2025-02-15T14:23:18.000Z</time>
      </trkpt>
      <trkpt lat="44.24977" lon="0.67957">
        <ele>91</ele>
        <time>2025-02-15T14:24:14.000Z</time>
      </trkpt>
      <trkpt lat="44.24993" lon="0.67909">
        <ele>91</ele>
        <time>2025-02-15T14:24:58.000Z</time>
      </trkpt>
      <trkpt lat="44.25016" lon="0.67866">
        <ele>95</ele>
        <time>2025-02-15T14:26:22.000Z</time>
      </trkpt>
      <trkpt lat="44.25039" lon="0.67829">
        <ele>97</ele>
        <time>2025-02-15T14:27:23.000Z</time>
      </trkpt>
      <trkpt lat="44.2506" lon="0.67799">
        <ele>99</ele>
        <time>2025-02-15T14:28:18.000Z</time>
      </trkpt>
      <trkpt lat="44.2508" lon="0.67781">
        <ele>99</ele>
        <time>2025-02-15T14:28:45.000Z</time>
      </trkpt>
      <trkpt lat="44.25107" lon="0.67768">
        <ele>100</ele>
        <time>2025-02-15T14:29:28.000Z</time>
      </trkpt>
      <trkpt lat="44.25107" lon="0.67686">
        <ele>105</ele>
        <time>2025-02-15T14:31:26.000Z</time>
      </trkpt>
      <trkpt lat="44.25107" lon="0.67663">
        <ele>107</ele>
        <time>2025-02-15T14:32:06.000Z</time>
      </trkpt>
      <trkpt lat="44.25078" lon="0.67645">
        <ele>107</ele>
        <time>2025-02-15T14:32:43.000Z</time>
      </trkpt>
      <trkpt lat="44.25016" lon="0.67639">
        <ele>118</ele>
        <time>2025-02-15T14:35:46.000Z</time>
      </trkpt>
      <trkpt lat="44.25038" lon="0.67578">
        <ele>121</ele>
        <time>2025-02-15T14:37:13.000Z</time>
      </trkpt>
      <trkpt lat="44.25057" lon="0.67524">
        <ele>123</ele>
        <time>2025-02-15T14:38:23.000Z</time>
      </trkpt>
      <trkpt lat="44.25072" lon="0.67484">
        <ele>125</ele>
        <time>2025-02-15T14:39:20.000Z</time>
      </trkpt>
      <trkpt lat="44.25083" lon="0.67453">
        <ele>128</ele>
        <time>2025-02-15T14:40:20.000Z</time>
      </trkpt>
      <trkpt lat="44.25104" lon="0.67405">
        <ele>136</ele>
        <time>2025-02-15T14:42:29.000Z</time>
      </trkpt>
      <trkpt lat="44.25125" lon="0.67357">
        <ele>144</ele>
        <time>2025-02-15T14:44:37.000Z</time>
      </trkpt>
      <trkpt lat="44.25146" lon="0.67317">
        <ele>148</ele>
        <time>2025-02-15T14:45:58.000Z</time>
      </trkpt>
      <trkpt lat="44.25159" lon="0.67291">
        <ele>151</ele>
        <time>2025-02-15T14:46:55.000Z</time>
      </trkpt>
      <trkpt lat="44.25138" lon="0.67276">
        <ele>156</ele>
        <time>2025-02-15T14:48:13.000Z</time>
      </trkpt>
      <trkpt lat="44.25098" lon="0.67311">
        <ele>155</ele>
        <time>2025-02-15T14:49:07.000Z</time>
      </trkpt>
      <trkpt lat="44.25068" lon="0.67347">
        <ele>154</ele>
        <time>2025-02-15T14:49:52.000Z</time>
      </trkpt>
      <trkpt lat="44.25044" lon="0.67389">
        <ele>151</ele>
        <time>2025-02-15T14:50:36.000Z</time>
      </trkpt>
      <trkpt lat="44.25026" lon="0.6742">
        <ele>150</ele>
        <time>2025-02-15T14:51:09.000Z</time>
      </trkpt>
      <trkpt lat="44.24999" lon="0.67455">
        <ele>150</ele>
        <time>2025-02-15T14:51:52.000Z</time>
      </trkpt>
      <trkpt lat="44.24976" lon="0.67467">
        <ele>152</ele>
        <time>2025-02-15T14:52:41.000Z</time>
      </trkpt>
      <trkpt lat="44.24962" lon="0.67517">
        <ele>147</ele>
        <time>2025-02-15T14:53:24.000Z</time>
      </trkpt>
      <trkpt lat="44.24941" lon="0.67547">
        <ele>147</ele>
        <time>2025-02-15T14:53:58.000Z</time>
      </trkpt>
      <trkpt lat="44.24908" lon="0.67575">
        <ele>147</ele>
        <time>2025-02-15T14:54:42.000Z</time>
      </trkpt>
      <trkpt lat="44.24888" lon="0.6761">
        <ele>140</ele>
        <time>2025-02-15T14:55:19.000Z</time>
      </trkpt>
      <trkpt lat="44.24858" lon="0.67626">
        <ele>138</ele>
        <time>2025-02-15T14:55:56.000Z</time>
      </trkpt>
      <trkpt lat="44.24838" lon="0.67623">
        <ele>140</ele>
        <time>2025-02-15T14:56:40.000Z</time>
      </trkpt>
      <trkpt lat="44.24812" lon="0.67626">
        <ele>135</ele>
        <time>2025-02-15T14:57:10.000Z</time>
      </trkpt>
      <trkpt lat="44.24805" lon="0.67626">
        <ele>134</ele>
        <time>2025-02-15T14:57:18.000Z</time>
      </trkpt>
      <trkpt lat="44.24809" lon="0.67613">
        <ele>136</ele>
        <time>2025-02-15T14:57:51.000Z</time>
      </trkpt>
      <trkpt lat="44.24812" lon="0.67598">
        <ele>139</ele>
        <time>2025-02-15T14:58:34.000Z</time>
      </trkpt>
      <trkpt lat="44.24816" lon="0.67584">
        <ele>142</ele>
        <time>2025-02-15T14:59:17.000Z</time>
      </trkpt>
      <trkpt lat="44.24817" lon="0.67568">
        <ele>143</ele>
        <time>2025-02-15T14:59:40.000Z</time>
      </trkpt>
      <trkpt lat="44.24821" lon="0.67559">
        <ele>144</ele>
        <time>2025-02-15T14:59:59.000Z</time>
      </trkpt>
      <trkpt lat="44.24825" lon="0.67538">
        <ele>146</ele>
        <time>2025-02-15T15:00:37.000Z</time>
      </trkpt>
      <trkpt lat="44.24827" lon="0.67526">
        <ele>147</ele>
        <time>2025-02-15T15:00:58.000Z</time>
      </trkpt>
      <trkpt lat="44.24831" lon="0.67504">
        <ele>149</ele>
        <time>2025-02-15T15:01:37.000Z</time>
      </trkpt>
      <trkpt lat="44.24834" lon="0.67477">
        <ele>150</ele>
        <time>2025-02-15T15:02:10.000Z</time>
      </trkpt>
      <trkpt lat="44.24849" lon="0.67416">
        <ele>153</ele>
        <time>2025-02-15T15:03:34.000Z</time>
      </trkpt>
      <trkpt lat="44.24847" lon="0.67368">
        <ele>155</ele>
        <time>2025-02-15T15:04:34.000Z</time>
      </trkpt>
      <trkpt lat="44.24844" lon="0.67311">
        <ele>157</ele>
        <time>2025-02-15T15:05:41.000Z</time>
      </trkpt>
      <trkpt lat="44.24842" lon="0.67251">
        <ele>158</ele>
        <time>2025-02-15T15:06:40.000Z</time>
      </trkpt>
      <trkpt lat="44.24831" lon="0.67217">
        <ele>159</ele>
        <time>2025-02-15T15:07:21.000Z</time>
      </trkpt>
      <trkpt lat="44.24814" lon="0.67183">
        <ele>161</ele>
        <time>2025-02-15T15:08:16.000Z</time>
      </trkpt>
      <trkpt lat="44.24791" lon="0.67157">
        <ele>162</ele>
        <time>2025-02-15T15:08:59.000Z</time>
      </trkpt>
      <trkpt lat="44.24763" lon="0.6714">
        <ele>162</ele>
        <time>2025-02-15T15:09:34.000Z</time>
      </trkpt>
      <trkpt lat="44.24747" lon="0.67131">
        <ele>162</ele>
        <time>2025-02-15T15:09:54.000Z</time>
      </trkpt>
      <trkpt lat="44.24729" lon="0.67127">
        <ele>165</ele>
        <time>2025-02-15T15:10:46.000Z</time>
      </trkpt>
      <trkpt lat="44.2471" lon="0.67103">
        <ele>168</ele>
        <time>2025-02-15T15:11:46.000Z</time>
      </trkpt>
      <trkpt lat="44.24686" lon="0.67062">
        <ele>172</ele>
        <time>2025-02-15T15:13:10.000Z</time>
      </trkpt>
      <trkpt lat="44.24648" lon="0.67005">
        <ele>176</ele>
        <time>2025-02-15T15:14:56.000Z</time>
      </trkpt>
      <trkpt lat="44.24617" lon="0.67019">
        <ele>175</ele>
        <time>2025-02-15T15:15:33.000Z</time>
      </trkpt>
      <trkpt lat="44.24601" lon="0.67033">
        <ele>173</ele>
        <time>2025-02-15T15:15:56.000Z</time>
      </trkpt>
      <trkpt lat="44.24581" lon="0.67042">
        <ele>172</ele>
        <time>2025-02-15T15:16:19.000Z</time>
      </trkpt>
      <trkpt lat="44.24568" lon="0.6702">
        <ele>174</ele>
        <time>2025-02-15T15:17:03.000Z</time>
      </trkpt>
      <trkpt lat="44.24551" lon="0.66984">
        <ele>176</ele>
        <time>2025-02-15T15:17:59.000Z</time>
      </trkpt>
      <trkpt lat="44.24532" lon="0.66945">
        <ele>177</ele>
        <time>2025-02-15T15:18:49.000Z</time>
      </trkpt>
      <trkpt lat="44.24474" lon="0.66975">
        <ele>171</ele>
        <time>2025-02-15T15:20:00.000Z</time>
      </trkpt>
      <trkpt lat="44.2445" lon="0.66986">
        <ele>168</ele>
        <time>2025-02-15T15:20:29.000Z</time>
      </trkpt>
      <trkpt lat="44.24392" lon="0.67015">
        <ele>163</ele>
        <time>2025-02-15T15:21:40.000Z</time>
      </trkpt>
      <trkpt lat="44.2435" lon="0.67035">
        <ele>160</ele>
        <time>2025-02-15T15:22:30.000Z</time>
      </trkpt>
      <trkpt lat="44.24333" lon="0.67037">
        <ele>159</ele>
        <time>2025-02-15T15:22:49.000Z</time>
      </trkpt>
      <trkpt lat="44.24296" lon="0.67041">
        <ele>157</ele>
        <time>2025-02-15T15:23:31.000Z</time>
      </trkpt>
      <trkpt lat="44.24275" lon="0.67047">
        <ele>156</ele>
        <time>2025-02-15T15:23:56.000Z</time>
      </trkpt>
      <trkpt lat="44.24235" lon="0.67061">
        <ele>154</ele>
        <time>2025-02-15T15:24:43.000Z</time>
      </trkpt>
      <trkpt lat="44.24206" lon="0.67065">
        <ele>153</ele>
        <time>2025-02-15T15:25:16.000Z</time>
      </trkpt>
      <trkpt lat="44.24167" lon="0.67069">
        <ele>152</ele>
        <time>2025-02-15T15:26:01.000Z</time>
      </trkpt>
      <trkpt lat="44.24143" lon="0.67066">
        <ele>149</ele>
        <time>2025-02-15T15:26:29.000Z</time>
      </trkpt>
      <trkpt lat="44.24125" lon="0.6706">
        <ele>147</ele>
        <time>2025-02-15T15:26:50.000Z</time>
      </trkpt>
      <trkpt lat="44.24103" lon="0.67054">
        <ele>143</ele>
        <time>2025-02-15T15:27:16.000Z</time>
      </trkpt>
      <trkpt lat="44.2409" lon="0.67052">
        <ele>141</ele>
        <time>2025-02-15T15:27:30.000Z</time>
      </trkpt>
      <trkpt lat="44.24077" lon="0.67049">
        <ele>139</ele>
        <time>2025-02-15T15:27:46.000Z</time>
      </trkpt>
      <trkpt lat="44.2407" lon="0.67048">
        <ele>137</ele>
        <time>2025-02-15T15:27:54.000Z</time>
      </trkpt>
      <trkpt lat="44.24063" lon="0.67054">
        <ele>136</ele>
        <time>2025-02-15T15:28:03.000Z</time>
      </trkpt>
      <trkpt lat="44.24056" lon="0.67067">
        <ele>136</ele>
        <time>2025-02-15T15:28:16.000Z</time>
      </trkpt>
      <trkpt lat="44.2404" lon="0.67091">
        <ele>133</ele>
        <time>2025-02-15T15:28:42.000Z</time>
      </trkpt>
      <trkpt lat="44.2402" lon="0.67126">
        <ele>127</ele>
        <time>2025-02-15T15:29:19.000Z</time>
      </trkpt>
      <trkpt lat="44.23986" lon="0.67158">
        <ele>123</ele>
        <time>2025-02-15T15:30:06.000Z</time>
      </trkpt>
      <trkpt lat="44.23953" lon="0.67187">
        <ele>117</ele>
        <time>2025-02-15T15:30:51.000Z</time>
      </trkpt>
      <trkpt lat="44.23914" lon="0.67227">
        <ele>111</ele>
        <time>2025-02-15T15:31:47.000Z</time>
      </trkpt>
      <trkpt lat="44.23894" lon="0.6725">
        <ele>108</ele>
        <time>2025-02-15T15:32:16.000Z</time>
      </trkpt>
      <trkpt lat="44.2388" lon="0.67271">
        <ele>104</ele>
        <time>2025-02-15T15:32:41.000Z</time>
      </trkpt>
      <trkpt lat="44.23851" lon="0.67306">
        <ele>101</ele>
        <time>2025-02-15T15:33:25.000Z</time>
      </trkpt>
      <trkpt lat="44.23809" lon="0.67362">
        <ele>96</ele>
        <time>2025-02-15T15:34:32.000Z</time>
      </trkpt>
      <trkpt lat="44.23769" lon="0.67403">
        <ele>93</ele>
        <time>2025-02-15T15:35:28.000Z</time>
      </trkpt>
      <trkpt lat="44.23748" lon="0.67418">
        <ele>92</ele>
        <time>2025-02-15T15:35:56.000Z</time>
      </trkpt>
      <trkpt lat="44.23713" lon="0.67433">
        <ele>87</ele>
        <time>2025-02-15T15:36:38.000Z</time>
      </trkpt>
      <trkpt lat="44.23678" lon="0.67439">
        <ele>82</ele>
        <time>2025-02-15T15:37:19.000Z</time>
      </trkpt>
      <trkpt lat="44.23634" lon="0.67449">
        <ele>78</ele>
        <time>2025-02-15T15:38:10.000Z</time>
      </trkpt>
      <trkpt lat="44.23581" lon="0.6746">
        <ele>73</ele>
        <time>2025-02-15T15:39:11.000Z</time>
      </trkpt>
      <trkpt lat="44.23512" lon="0.67474">
        <ele>73</ele>
        <time>2025-02-15T15:40:31.000Z</time>
      </trkpt>
      <trkpt lat="44.23468" lon="0.67581">
        <ele>70</ele>
        <time>2025-02-15T15:42:12.000Z</time>
      </trkpt>
      <trkpt lat="44.23445" lon="0.67623">
        <ele>69</ele>
        <time>2025-02-15T15:42:56.000Z</time>
      </trkpt>
      <trkpt lat="44.2343" lon="0.67615">
        <ele>69</ele>
        <time>2025-02-15T15:43:15.000Z</time>
      </trkpt>
      <trkpt lat="44.23417" lon="0.67624">
        <ele>69</ele>
        <time>2025-02-15T15:43:31.000Z</time>
      </trkpt>
      <trkpt lat="44.23411" lon="0.67634">
        <ele>69</ele>
        <time>2025-02-15T15:43:41.000Z</time>
      </trkpt>
      <trkpt lat="44.23413" lon="0.67652">
        <ele>68</ele>
        <time>2025-02-15T15:43:55.000Z</time>
      </trkpt>
      <trkpt lat="44.2342" lon="0.67664">
        <ele>68</ele>
        <time>2025-02-15T15:44:08.000Z</time>
      </trkpt>
      <trkpt lat="44.2343" lon="0.67668">
        <ele>68</ele>
        <time>2025-02-15T15:44:20.000Z</time>
      </trkpt>
      <trkpt lat="44.23439" lon="0.67668">
        <ele>68</ele>
        <time>2025-02-15T15:44:30.000Z</time>
      </trkpt>
      <trkpt lat="44.23452" lon="0.67694">
        <ele>68</ele>
        <time>2025-02-15T15:44:55.000Z</time>
      </trkpt>
      <trkpt lat="44.2345" lon="0.67713">
        <ele>67</ele>
        <time>2025-02-15T15:45:11.000Z</time>
      </trkpt>
      <trkpt lat="44.23443" lon="0.67745">
        <ele>66</ele>
        <time>2025-02-15T15:45:39.000Z</time>
      </trkpt>
      <trkpt lat="44.23438" lon="0.67777">
        <ele>66</ele>
        <time>2025-02-15T15:46:05.000Z</time>
      </trkpt>
      <trkpt lat="44.23434" lon="0.67811">
        <ele>66</ele>
        <time>2025-02-15T15:46:33.000Z</time>
      </trkpt>
      <trkpt lat="44.23412" lon="0.67937">
        <ele>65</ele>
        <time>2025-02-15T15:48:20.000Z</time>
      </trkpt>
      <trkpt lat="44.23405" lon="0.67992">
        <ele>67</ele>
        <time>2025-02-15T15:49:26.000Z</time>
      </trkpt>
      <trkpt lat="44.23385" lon="0.67964">
        <ele>66</ele>
        <time>2025-02-15T15:49:58.000Z</time>
      </trkpt>
      <trkpt lat="44.23332" lon="0.67975">
        <ele>65</ele>
        <time>2025-02-15T15:50:58.000Z</time>
      </trkpt>
      <trkpt lat="44.23287" lon="0.67991">
        <ele>65</ele>
        <time>2025-02-15T15:51:52.000Z</time>
      </trkpt>
      <trkpt lat="44.23276" lon="0.68022">
        <ele>66</ele>
        <time>2025-02-15T15:52:31.000Z</time>
      </trkpt>
      <trkpt lat="44.23261" lon="0.68035">
        <ele>66</ele>
        <time>2025-02-15T15:52:51.000Z</time>
      </trkpt>
      <trkpt lat="44.23274" lon="0.68077">
        <ele>67</ele>
        <time>2025-02-15T15:53:39.000Z</time>
      </trkpt>
      <trkpt lat="44.23266" lon="0.68092">
        <ele>67</ele>
        <time>2025-02-15T15:53:55.000Z</time>
      </trkpt>
      <trkpt lat="44.23238" lon="0.68103">
        <ele>68</ele>
        <time>2025-02-15T15:54:38.000Z</time>
      </trkpt>
      <trkpt lat="44.23233" lon="0.6812">
        <ele>68</ele>
        <time>2025-02-15T15:54:53.000Z</time>
      </trkpt>
      <trkpt lat="44.23211" lon="0.68145">
        <ele>69</ele>
        <time>2025-02-15T15:55:35.000Z</time>
      </trkpt>
      <trkpt lat="44.23205" lon="0.68158">
        <ele>69</ele>
        <time>2025-02-15T15:55:48.000Z</time>
      </trkpt>
      <trkpt lat="44.23203" lon="0.68178">
        <ele>70</ele>
        <time>2025-02-15T15:56:15.000Z</time>
      </trkpt>
      <trkpt lat="44.23206" lon="0.68197">
        <ele>70</ele>
        <time>2025-02-15T15:56:31.000Z</time>
      </trkpt>
      <trkpt lat="44.23215" lon="0.68212">
        <ele>70</ele>
        <time>2025-02-15T15:56:47.000Z</time>
      </trkpt>
    </trkseg>
  </trk>
</gpx>